Time;durP1;ratioP1;P1;durP2;ratioP2;P2;SDS_P1;SDS_P2;PMS_P1;PMS_P2;Temp;Humidity;BMP_temperature;BMP_pressure;BME280_temperature;BME280_humidity;BME280_pressure;Samples;Min_cycle;Max_cycle;Signal;HPM_P1;HPM_P2
2021/01/15 00:01:46;;;;;;;80.38;25.60;;;;;;;5.95;66.03;100824.78;4989503;28;20106;-85
2021/01/15 00:04:14;;;;;;;82.10;24.47;;;;;;;5.93;65.69;100834.25;4992176;28;20049;-83
2021/01/15 00:06:42;;;;;;;79.45;24.40;;;;;;;5.96;65.39;100833.44;4960337;28;20050;-83
2021/01/15 00:09:10;;;;;;;73.55;22.23;;;;;;;5.60;66.60;100825.44;4993413;28;20038;-83
2021/01/15 00:11:37;;;;;;;72.18;23.05;;;;;;;5.77;66.15;100837.16;4972324;28;20081;-83
2021/01/15 00:14:06;;;;;;;66.82;20.95;;;;;;;5.79;66.06;100840.69;4972288;28;20042;-83
2021/01/15 00:16:33;;;;;;;66.57;22.52;;;;;;;5.72;66.03;100836.16;4965502;28;20053;-83
2021/01/15 00:19:02;;;;;;;64.40;20.50;;;;;;;5.60;66.70;100841.88;4980137;28;20398;-83
2021/01/15 00:21:31;;;;;;;68.07;21.80;;;;;;;5.31;67.29;100834.88;4981699;28;20578;-84
2021/01/15 00:24:05;;;;;;;64.53;19.67;;;;;;;5.24;67.84;100835.50;4986577;28;20049;-83
2021/01/15 00:26:34;;;;;;;63.45;21.48;;;;;;;5.09;68.38;100838.47;4952469;28;20077;-83
2021/01/15 00:29:01;;;;;;;78.22;22.52;;;;;;;4.96;68.77;100840.63;4950210;28;20125;-83
2021/01/15 00:31:36;;;;;;;98.82;25.02;;;;;;;5.02;68.90;100846.00;4980267;28;21038;-83
2021/01/15 00:34:09;;;;;;;96.50;23.13;;;;;;;4.64;70.07;100840.44;4988586;28;20045;-83
2021/01/15 00:36:38;;;;;;;100.43;23.65;;;;;;;4.32;71.20;100839.28;4978802;28;20050;-85
2021/01/15 00:39:08;;;;;;;99.22;23.63;;;;;;;4.59;70.62;100841.97;4982350;28;20073;-83
2021/01/15 00:41:38;;;;;;;79.47;21.63;;;;;;;4.75;69.84;100845.94;4999691;28;20053;-84
2021/01/15 00:44:07;;;;;;;72.97;21.13;;;;;;;4.64;69.47;100848.19;4989740;28;20057;-84
2021/01/15 00:46:36;;;;;;;67.30;20.40;;;;;;;4.43;69.99;100849.13;4974937;28;20077;-83
2021/01/15 00:49:05;;;;;;;61.63;19.80;;;;;;;4.93;68.71;100849.19;4974815;28;20520;-83
2021/01/15 00:51:33;;;;;;;74.90;20.95;;;;;;;4.68;69.17;100849.16;5001753;28;20054;-83
2021/01/15 00:54:08;;;;;;;65.03;19.58;;;;;;;4.40;69.90;100857.69;4989242;28;20088;-83
2021/01/15 00:56:35;;;;;;;63.72;20.50;;;;;;;4.80;68.74;100855.63;4994506;28;20038;-83
2021/01/15 00:59:05;;;;;;;69.88;20.42;;;;;;;4.93;67.50;100845.72;4994364;28;20053;-82
2021/01/15 01:01:35;;;;;;;65.47;19.85;;;;;;;4.93;67.35;100844.00;4965449;28;20051;-83
2021/01/15 01:04:03;;;;;;;52.50;17.85;;;;;;;5.04;66.69;100846.91;5004714;28;20373;-84
2021/01/15 01:06:33;;;;;;;51.53;17.38;;;;;;;4.96;66.68;100853.56;4961401;28;20043;-84
2021/01/15 01:09:07;;;;;;;65.65;22.35;;;;;;;4.97;66.68;100853.63;4971592;28;20050;-84
2021/01/15 01:11:38;;;;;;;41.25;15.73;;;;;;;4.97;66.11;100851.03;4979943;28;20046;-83
2021/01/15 01:14:06;;;;;;;37.28;14.68;;;;;;;4.91;66.22;100856.00;4980083;28;20736;-84
2021/01/15 01:16:33;;;;;;;38.30;14.70;;;;;;;4.61;66.68;100863.59;4962600;28;20129;-85
2021/01/15 01:19:00;;;;;;;42.67;15.43;;;;;;;4.42;67.28;100860.28;4989966;28;20046;-85
2021/01/15 01:21:32;;;;;;;44.80;15.13;;;;;;;4.26;67.83;100864.06;4950208;28;20469;-83
2021/01/15 01:24:00;;;;;;;47.00;14.23;;;;;;;4.01;68.16;100864.84;4922014;29;20051;-82
2021/01/15 01:26:42;;;;;;;41.47;14.38;;;;;;;4.10;68.08;100866.91;4953068;28;20059;-83
2021/01/15 01:29:12;;;;;;;53.00;15.32;;;;;;;4.45;66.60;100855.25;4933695;28;20138;-83
2021/01/15 01:31:39;;;;;;;45.00;14.27;;;;;;;4.45;66.18;100860.44;4925505;28;20154;-82
2021/01/15 01:34:08;;;;;;;40.90;14.30;;;;;;;4.43;66.43;100857.78;4974783;28;20438;-83
2021/01/15 01:36:35;;;;;;;39.70;14.73;;;;;;;4.44;66.43;100861.25;4935412;28;20101;-82
2021/01/15 01:39:03;;;;;;;44.63;14.13;;;;;;;4.44;66.66;100866.41;4926312;29;20126;-82
2021/01/15 01:41:30;;;;;;;43.22;15.13;;;;;;;4.55;65.88;100862.50;4930589;28;20470;-83
2021/01/15 01:43:57;;;;;;;33.95;12.68;;;;;;;4.36;66.43;100868.75;4932481;28;20053;-80
2021/01/15 01:46:26;;;;;;;36.53;13.90;;;;;;;4.51;66.02;100871.00;4935016;28;20164;-81
2021/01/15 01:48:54;;;;;;;39.58;13.45;;;;;;;4.35;66.31;100875.63;4921730;28;20092;-81
2021/01/15 01:51:31;;;;;;;28.88;12.18;;;;;;;4.22;66.11;100875.97;4929276;28;20109;-82
2021/01/15 01:54:02;;;;;;;34.70;13.07;;;;;;;4.11;66.73;100876.41;4872857;29;20068;-85
2021/01/15 01:56:31;;;;;;;34.88;14.75;;;;;;;4.12;66.96;100881.66;4868025;29;20062;-80
2021/01/15 01:59:00;;;;;;;37.05;14.43;;;;;;;3.97;67.10;100883.66;4858221;29;20059;-81
2021/01/15 02:01:27;;;;;;;33.33;13.05;;;;;;;3.91;67.15;100886.00;4920298;29;20055;-82
2021/01/15 02:04:00;;;;;;;33.15;14.20;;;;;;;3.04;69.72;100895.44;4894861;28;20060;-79
2021/01/15 02:06:31;;;;;;;38.00;12.52;;;;;;;3.45;68.64;100891.09;4914274;29;20102;-81
2021/01/15 02:08:58;;;;;;;30.98;12.15;;;;;;;3.24;69.97;100901.44;4872323;29;20099;-80
2021/01/15 02:12:24;;;;;;;36.60;12.77;;;;;;;3.34;70.14;100892.34;4870135;29;20048;-81
2021/01/15 02:15:09;;;;;;;32.10;12.98;;;;;;;3.46;69.03;100898.88;4756132;29;20288;-79
2021/01/15 02:17:51;;;;;;;34.35;13.15;;;;;;;3.66;67.97;100904.84;4756497;29;20094;-81
2021/01/15 02:20:39;;;;;;;33.78;12.82;;;;;;;3.73;67.18;100903.41;4756742;29;20116;-80
2021/01/15 02:23:22;;;;;;;31.02;12.50;;;;;;;3.81;67.08;100918.38;4743349;29;20086;-81
2021/01/15 02:26:20;;;;;;;33.92;13.32;;;;;;;4.11;66.14;100910.03;4790881;29;20051;-81
2021/01/15 02:29:23;;;;;;;28.52;11.75;;;;;;;4.12;66.23;100899.75;4830750;29;20053;-81
2021/01/15 02:32:25;;;;;;;28.17;12.35;;;;;;;4.14;65.91;100916.19;4801370;29;20053;-80
2021/01/15 02:35:39;;;;;;;31.50;11.63;;;;;;;3.74;66.48;100915.50;4858704;29;20045;-81
2021/01/15 02:38:13;;;;;;;;;;;;;;;3.96;66.19;100915.50;4858100;29;20054;-80
2021/01/15 02:41:19;;;;;;;30.90;12.23;;;;;;;4.03;65.93;100907.16;4791366;29;20460;-81
2021/01/15 02:43:53;;;;;;;27.38;12.75;;;;;;;4.04;65.87;100914.09;4809603;29;20095;-82
2021/01/15 02:46:40;;;;;;;33.50;13.30;;;;;;;3.85;65.48;100919.38;4848028;29;20046;-79
2021/01/15 02:49:10;;;;;;;34.97;14.23;;;;;;;3.96;65.69;100928.44;4879831;29;20125;-79
2021/01/15 02:51:40;;;;;;;29.50;13.43;;;;;;;3.97;65.39;100930.19;4917254;28;20055;-79
2021/01/15 02:54:08;;;;;;;31.77;14.38;;;;;;;3.65;66.05;100928.03;4962665;28;20074;-79
2021/01/15 02:56:36;;;;;;;32.70;13.93;;;;;;;3.81;66.44;100927.81;4922193;29;20051;-79
2021/01/15 02:59:04;;;;;;;31.83;13.40;;;;;;;3.88;66.42;100932.44;4924666;29;20051;-80
2021/01/15 03:01:56;;;;;;;38.40;13.65;;;;;;;4.01;66.55;100934.66;4893247;28;20506;-81
2021/01/15 03:04:32;;;;;;;35.17;14.05;;;;;;;3.93;66.53;100936.09;4924817;29;20073;-81
2021/01/15 03:07:02;;;;;;;43.75;14.52;;;;;;;3.86;66.71;100940.13;4881070;29;20063;-80
2021/01/15 03:09:42;;;;;;;42.10;15.05;;;;;;;3.94;66.52;100940.41;4903066;29;20110;-80
2021/01/15 03:12:10;;;;;;;70.55;15.13;;;;;;;3.93;66.96;100946.41;4890370;29;20047;-79
2021/01/15 03:14:38;;;;;;;41.47;13.93;;;;;;;3.83;67.72;100936.53;4898170;29;20051;-79
2021/01/15 03:17:09;;;;;;;65.10;14.30;;;;;;;3.97;67.18;100942.25;4921190;29;20051;-80
2021/01/15 03:19:39;;;;;;;72.93;14.57;;;;;;;3.85;67.02;100938.34;4900761;29;20086;-80
2021/01/15 03:22:18;;;;;;;42.55;16.38;;;;;;;4.15;66.32;100943.84;4914074;28;20515;-78
2021/01/15 03:24:58;;;;;;;40.80;15.18;;;;;;;4.02;66.10;100956.22;4934564;28;20196;-78
2021/01/15 03:27:54;;;;;;;34.80;14.55;;;;;;;4.30;65.70;100964.22;4927961;28;20130;-80
2021/01/15 03:30:24;;;;;;;39.13;13.57;;;;;;;4.07;65.92;100981.44;4957119;28;20488;-80
2021/01/15 03:32:56;;;;;;;57.65;14.63;;;;;;;4.03;66.17;100981.28;4974053;28;20057;-80
2021/01/15 03:35:24;;;;;;;32.10;13.07;;;;;;;4.09;66.15;100981.50;4982900;28;20038;-80
2021/01/15 03:37:59;;;;;;;26.33;12.05;;;;;;;4.31;66.02;100984.97;5009711;28;20112;-78
2021/01/15 03:40:34;;;;;;;38.92;14.00;;;;;;;4.53;65.72;100989.25;4966157;28;20126;-79
2021/01/15 03:43:09;;;;;;;43.95;14.25;;;;;;;4.64;65.59;100987.06;4970315;28;20054;-79
2021/01/15 03:45:36;;;;;;;27.55;12.48;;;;;;;4.57;65.83;100990.22;5002002;28;20136;-80
2021/01/15 03:48:04;;;;;;;24.92;12.25;;;;;;;4.38;66.25;101002.50;4975515;28;20481;-80
2021/01/15 03:50:31;;;;;;;56.28;13.38;;;;;;;4.07;66.31;101001.25;4976983;28;20042;-80
2021/01/15 03:52:58;;;;;;;33.10;11.48;;;;;;;4.49;65.94;101002.00;4981290;28;20045;-79
2021/01/15 03:55:25;;;;;;;30.67;13.13;;;;;;;4.24;66.54;101014.00;5002629;28;20046;-81
2021/01/15 03:57:53;;;;;;;31.67;11.38;;;;;;;4.16;66.38;101004.19;4976373;28;20047;-79
2021/01/15 04:00:23;;;;;;;29.98;12.88;;;;;;;3.96;66.30;101000.81;4968410;28;20141;-81
2021/01/15 04:02:51;;;;;;;53.05;12.32;;;;;;;3.86;66.44;100999.56;4992249;28;20394;-80
2021/01/15 04:05:18;;;;;;;46.17;12.98;;;;;;;3.96;67.13;101008.56;4984931;28;20073;-80
2021/01/15 04:07:46;;;;;;;36.17;12.80;;;;;;;4.06;67.01;101002.06;4978678;28;20113;-80
2021/01/15 04:10:16;;;;;;;55.78;13.10;;;;;;;3.61;68.70;101008.84;4982346;28;20137;-80
2021/01/15 04:12:44;;;;;;;77.88;13.65;;;;;;;3.67;69.62;101002.22;4970209;28;20108;-82
2021/01/15 04:15:13;;;;;;;116.72;15.27;;;;;;;3.40;70.02;100999.41;4986091;28;20053;-84
2021/01/15 04:17:40;;;;;;;132.32;14.98;;;;;;;3.59;70.46;101002.75;4973750;28;20157;-80
2021/01/15 04:20:09;;;;;;;146.10;16.63;;;;;;;3.84;69.56;101008.94;4969409;28;20056;-82
2021/01/15 04:22:39;;;;;;;118.60;15.15;;;;;;;3.88;69.71;101005.69;4975846;28;20170;-80
2021/01/15 04:25:07;;;;;;;154.25;15.05;;;;;;;3.59;70.63;101005.31;4961465;28;20066;-79
2021/01/15 04:27:36;;;;;;;41.40;13.90;;;;;;;4.12;69.27;100999.72;4970870;28;20053;-80
2021/01/15 04:30:06;;;;;;;146.60;13.80;;;;;;;4.02;69.13;101007.94;4982045;28;20120;-81
2021/01/15 04:32:34;;;;;;;187.13;15.95;;;;;;;3.79;69.79;101012.19;4982040;28;20046;-81
2021/01/15 04:35:02;;;;;;;48.20;11.43;;;;;;;4.27;68.80;101018.41;4984757;28;20046;-80
2021/01/15 04:37:29;;;;;;;102.95;11.75;;;;;;;3.93;69.57;101016.22;4976235;28;20042;-83
2021/01/15 04:39:56;;;;;;;70.45;11.43;;;;;;;4.15;69.20;101017.94;4964533;28;20055;-79
2021/01/15 04:42:26;;;;;;;50.92;12.27;;;;;;;4.07;69.35;101027.09;4966369;28;20329;-81
2021/01/15 04:44:54;;;;;;;49.65;11.27;;;;;;;4.17;69.52;101017.16;4968046;28;20046;-80
2021/01/15 04:47:24;;;;;;;91.97;12.05;;;;;;;4.45;68.39;101026.91;4990388;28;20093;-81
2021/01/15 04:49:52;;;;;;;140.93;13.90;;;;;;;4.16;68.99;101025.78;5003828;28;20080;-80
2021/01/15 04:52:19;;;;;;;69.18;12.23;;;;;;;4.11;69.59;101024.72;5008057;28;20038;-81
2021/01/15 04:54:53;;;;;;;88.50;12.65;;;;;;;4.12;69.38;101033.34;5003637;28;20089;-81
2021/01/15 04:57:20;;;;;;;192.70;15.60;;;;;;;3.88;69.27;101028.97;5005577;28;20045;-81
2021/01/15 04:59:48;;;;;;;135.18;11.15;;;;;;;4.07;69.43;101028.00;5003789;28;20058;-79
2021/01/15 05:02:19;;;;;;;49.00;10.52;;;;;;;4.32;68.72;101025.53;5000332;28;20050;-81
2021/01/15 05:04:46;;;;;;;29.45;10.63;;;;;;;4.53;67.64;101019.41;4980485;28;20509;-82
2021/01/15 05:07:13;;;;;;;81.38;9.93;;;;;;;4.07;68.62;101019.34;5001203;28;20054;-80
2021/01/15 05:09:47;;;;;;;22.85;8.23;;;;;;;4.38;68.08;101022.31;4988675;28;20140;-80
2021/01/15 05:12:15;;;;;;;30.42;8.13;;;;;;;4.64;67.14;101023.31;5019268;28;20092;-80
2021/01/15 05:14:43;;;;;;;19.52;8.05;;;;;;;4.65;66.85;101025.91;5004888;28;20524;-81
2021/01/15 05:17:10;;;;;;;16.35;7.05;;;;;;;4.75;66.65;101028.03;5004900;28;20567;-81
2021/01/15 05:19:40;;;;;;;14.77;6.70;;;;;;;4.56;66.72;101041.09;4989566;28;20038;-81
2021/01/15 05:22:13;;;;;;;14.68;6.72;;;;;;;4.11;66.87;101037.63;4992413;28;20046;-82
2021/01/15 05:24:40;;;;;;;19.38;6.13;;;;;;;4.28;65.71;101039.16;4995370;28;20510;-83
2021/01/15 05:27:38;;;;;;;14.43;6.25;;;;;;;4.18;65.56;101043.91;4979663;28;20046;-82
2021/01/15 05:30:18;;;;;;;18.92;6.82;;;;;;;3.90;65.46;101042.81;5003018;28;20056;-82
2021/01/15 05:32:45;;;;;;;15.82;5.88;;;;;;;3.37;66.16;101038.00;4985516;28;20060;-81
2021/01/15 05:35:11;;;;;;;20.27;7.55;;;;;;;3.21;66.82;101039.88;4983053;28;20398;-84
2021/01/15 05:37:38;;;;;;;19.52;7.15;;;;;;;3.58;65.61;101043.19;4998465;28;20073;-82
2021/01/15 05:40:05;;;;;;;20.35;8.05;;;;;;;3.56;65.29;101037.06;5000978;28;20531;-80
2021/01/15 05:42:50;;;;;;;25.25;9.02;;;;;;;3.52;64.86;101050.69;4983706;28;20065;-82
2021/01/15 05:45:19;;;;;;;25.42;8.10;;;;;;;3.55;64.63;101044.78;5002872;28;20050;-81
2021/01/15 05:47:47;;;;;;;21.40;8.55;;;;;;;3.40;64.44;101043.31;5003207;28;20050;-81
2021/01/15 05:50:16;;;;;;;19.83;9.38;;;;;;;3.28;64.51;101047.94;4984192;28;20043;-81
2021/01/15 05:52:57;;;;;;;21.40;9.27;;;;;;;3.43;64.21;101051.19;4982440;28;20089;-82
2021/01/15 05:55:25;;;;;;;23.40;10.05;;;;;;;3.31;64.58;101057.53;5004208;28;20068;-81
2021/01/15 05:57:52;;;;;;;23.17;9.40;;;;;;;3.24;64.96;101065.81;4997783;28;20042;-81
2021/01/15 06:00:24;;;;;;;23.50;10.73;;;;;;;3.25;65.31;101072.75;5004058;28;20386;-81
2021/01/15 06:02:51;;;;;;;;;;;;;;;3.18;65.36;101073.28;5002360;28;20168;-82
2021/01/15 06:05:21;;;;;;;26.58;10.00;;;;;;;3.21;65.51;101068.28;4998547;28;20393;-82
2021/01/15 06:07:57;;;;;;;25.02;10.50;;;;;;;3.22;65.23;101064.84;4982579;28;20054;-83
2021/01/15 06:10:25;;;;;;;24.33;9.27;;;;;;;3.11;65.11;101066.97;5030458;28;20050;-82
2021/01/15 06:12:52;;;;;;;78.15;9.98;;;;;;;2.88;65.83;101075.38;4994650;28;20334;-82
2021/01/15 06:15:19;;;;;;;58.17;8.43;;;;;;;3.01;65.50;101067.38;5006840;28;20129;-84
2021/01/15 06:17:52;;;;;;;31.75;7.22;;;;;;;3.00;65.50;101068.19;5002575;28;20046;-82
2021/01/15 06:20:20;;;;;;;14.40;7.82;;;;;;;2.93;65.16;101066.13;5032579;28;20137;-83
2021/01/15 06:22:49;;;;;;;16.58;7.93;;;;;;;2.99;65.07;101071.59;4968029;28;20113;-83
2021/01/15 06:25:28;;;;;;;19.08;8.07;;;;;;;2.79;64.90;101068.09;4997569;28;20085;-84
2021/01/15 06:27:56;;;;;;;21.33;8.98;;;;;;;2.70;64.74;101067.69;4982350;28;20133;-84
2021/01/15 06:30:37;;;;;;;30.65;8.77;;;;;;;2.47;65.06;101068.31;4986275;28;20054;-83
2021/01/15 06:33:06;;;;;;;40.65;9.82;;;;;;;2.91;64.43;101073.84;4985322;28;20182;-84
2021/01/15 06:35:35;;;;;;;24.73;7.30;;;;;;;2.98;64.30;101068.13;4981062;28;20089;-83
2021/01/15 06:38:03;;;;;;;14.02;7.47;;;;;;;2.89;64.42;101070.28;5002847;28;20129;-83
2021/01/15 06:40:37;;;;;;;17.65;9.15;;;;;;;2.72;65.01;101066.06;5001927;28;20065;-83
2021/01/15 06:43:20;;;;;;;31.00;9.23;;;;;;;2.57;65.13;101068.84;5006354;28;20057;-83
2021/01/15 06:45:54;;;;;;;32.40;11.52;;;;;;;2.49;64.86;101072.75;5000288;28;20153;-83
2021/01/15 06:48:33;;;;;;;26.88;10.27;;;;;;;2.39;64.55;101082.56;5021088;28;20046;-84
2021/01/15 06:51:00;;;;;;;24.23;8.88;;;;;;;2.14;64.60;101075.34;4991092;28;20074;-84
2021/01/15 06:53:43;;;;;;;28.73;9.63;;;;;;;2.21;64.60;101084.28;4984175;28;20126;-84
2021/01/15 06:56:17;;;;;;;31.27;9.82;;;;;;;2.15;64.31;101083.16;5027892;28;20050;-84
2021/01/15 06:58:44;;;;;;;21.67;9.57;;;;;;;2.05;63.89;101074.91;5004168;28;20109;-84
2021/01/15 07:01:17;;;;;;;24.85;8.15;;;;;;;1.62;63.94;101066.75;5003707;28;20076;-84
2021/01/15 07:04:18;;;;;;;22.02;7.70;;;;;;;1.57;63.85;101068.22;5004868;28;20092;-84
2021/01/15 07:07:03;;;;;;;20.98;7.90;;;;;;;1.58;63.92;101070.00;5000464;28;20046;-82
2021/01/15 07:09:30;;;;;;;25.92;9.80;;;;;;;1.72;63.29;101074.16;5002131;28;20053;-82
2021/01/15 07:12:05;;;;;;;25.35;8.98;;;;;;;1.64;63.51;101062.56;5002630;28;20077;-82
2021/01/15 07:14:49;;;;;;;15.20;8.18;;;;;;;1.61;63.78;101070.13;4986928;28;20414;-82
2021/01/15 07:17:26;;;;;;;22.20;9.00;;;;;;;1.65;63.82;101070.38;4988481;28;20069;-82
2021/01/15 07:20:03;;;;;;;22.08;9.05;;;;;;;1.72;63.73;101081.88;4999321;28;20160;-82
2021/01/15 07:22:35;;;;;;;29.77;10.90;;;;;;;1.21;67.51;101080.97;5002269;28;20137;-83
2021/01/15 07:25:05;;;;;;;31.40;11.80;;;;;;;1.64;67.16;101089.19;5000095;28;20101;-84
2021/01/15 07:27:31;;;;;;;48.42;12.48;;;;;;;1.37;68.59;101103.25;5004224;28;20054;-84
2021/01/15 07:29:59;;;;;;;56.17;13.32;;;;;;;1.62;67.99;101102.81;4995700;28;20498;-85
2021/01/15 07:32:35;;;;;;;27.40;11.00;;;;;;;1.72;67.55;101102.47;4998023;28;21585;-86
2021/01/15 07:35:02;;;;;;;38.33;14.48;;;;;;;1.92;66.57;101106.91;4989803;28;20045;-84
2021/01/15 07:37:30;;;;;;;29.63;12.35;;;;;;;2.01;66.28;101111.66;4989120;28;20145;-84
2021/01/15 07:40:14;;;;;;;31.85;13.10;;;;;;;1.87;66.16;101128.13;5003334;28;20522;-83
2021/01/15 07:42:52;;;;;;;25.83;10.98;;;;;;;1.43;65.09;101121.59;4998854;28;20092;-83
2021/01/15 07:45:25;;;;;;;31.13;11.32;;;;;;;1.50;65.18;101131.41;5002405;28;20050;-83
2021/01/15 07:47:52;;;;;;;33.60;11.02;;;;;;;1.58;65.26;101117.22;5001472;28;20495;-82
2021/01/15 07:50:29;;;;;;;34.85;12.35;;;;;;;1.56;65.03;101123.09;5004670;28;20512;-85
2021/01/15 07:53:21;;;;;;;42.25;12.32;;;;;;;1.42;64.83;101126.66;5000800;28;20133;-84
2021/01/15 07:55:47;;;;;;;39.10;12.80;;;;;;;1.37;65.18;101135.84;4998825;28;20054;-83
2021/01/15 07:58:20;;;;;;;38.67;12.50;;;;;;;1.41;65.06;101133.50;4999604;28;20049;-83
2021/01/15 08:00:49;;;;;;;30.08;13.07;;;;;;;1.55;64.39;101136.78;4987889;28;20053;-83
2021/01/15 08:03:16;;;;;;;26.70;11.20;;;;;;;1.45;65.02;101129.38;4997268;28;20192;-83
2021/01/15 08:05:44;;;;;;;33.58;10.57;;;;;;;1.43;64.54;101128.44;4994955;28;20148;-84
2021/01/15 08:08:16;;;;;;;37.85;13.98;;;;;;;1.64;64.42;101120.09;4988627;28;20046;-83
2021/01/15 08:10:48;;;;;;;31.35;13.70;;;;;;;1.66;64.21;101123.66;4946035;28;20063;-84
2021/01/15 08:13:18;;;;;;;40.13;13.88;;;;;;;1.49;64.73;101123.59;4940561;28;20106;-86
2021/01/15 08:15:44;;;;;;;39.00;15.02;;;;;;;1.47;65.13;101133.81;4934265;28;20054;-84
2021/01/15 08:18:11;;;;;;;43.05;14.88;;;;;;;1.10;65.38;101133.59;4964663;28;20118;-84
2021/01/15 08:20:38;;;;;;;44.47;15.00;;;;;;;1.10;65.66;101143.00;4947331;28;20051;-84
2021/01/15 08:23:04;;;;;;;32.92;10.85;;;;;;;1.26;65.32;101143.88;4942947;28;20062;-85
2021/01/15 08:25:31;;;;;;;31.52;10.07;;;;;;;1.29;64.58;101151.78;4943608;28;20074;-85
2021/01/15 08:27:58;;;;;;;36.45;11.40;;;;;;;1.42;64.20;101143.00;4953198;28;20050;-85
2021/01/15 08:30:24;;;;;;;25.77;9.77;;;;;;;1.50;63.99;101143.38;4934490;28;20061;-86
2021/01/15 08:32:51;;;;;;;24.70;10.50;;;;;;;1.40;63.93;101147.16;4942690;28;20054;-87
2021/01/15 08:35:29;;;;;;;23.40;10.90;;;;;;;1.45;64.28;101150.88;4966126;28;20047;-86
2021/01/15 08:38:03;;;;;;;25.67;10.48;;;;;;;1.50;64.16;101146.84;4943181;28;20051;-86
2021/01/15 08:40:38;;;;;;;19.25;8.20;;;;;;;1.24;64.26;101152.34;4934835;28;20053;-83
2021/01/15 08:43:05;;;;;;;25.88;7.07;;;;;;;1.44;63.78;101158.53;4953906;28;20058;-86
2021/01/15 08:45:32;;;;;;;17.77;6.68;;;;;;;1.32;63.08;101166.50;4946340;28;20054;-87
2021/01/15 08:48:01;;;;;;;24.38;6.50;;;;;;;1.56;63.21;101174.59;4985406;28;20141;-84
2021/01/15 08:50:29;;;;;;;19.25;6.65;;;;;;;1.73;63.11;101172.09;4989937;28;20045;-84
2021/01/15 08:52:57;;;;;;;14.27;6.47;;;;;;;1.84;62.85;101177.81;4994474;28;20045;-86
2021/01/15 08:55:26;;;;;;;10.73;5.18;;;;;;;1.89;63.17;101181.50;4997354;28;20081;-86
2021/01/15 08:57:54;;;;;;;19.02;5.75;;;;;;;1.94;62.76;101189.47;4942925;28;20477;-84
2021/01/15 09:00:23;;;;;;;15.10;5.68;;;;;;;2.11;62.41;101197.22;4947887;28;20242;-87
2021/01/15 09:02:52;;;;;;;16.77;6.20;;;;;;;2.21;62.59;101189.97;4967462;28;20051;-85
2021/01/15 09:05:20;;;;;;;16.23;6.75;;;;;;;2.42;62.21;101186.75;4966833;28;20042;-86
2021/01/15 09:07:49;;;;;;;16.40;6.40;;;;;;;2.62;62.63;101193.75;4964655;28;20046;-79
2021/01/15 09:10:18;;;;;;;20.27;7.40;;;;;;;2.84;62.41;101189.59;4955039;28;20050;-87
2021/01/15 09:12:47;;;;;;;10.82;6.45;;;;;;;3.07;62.96;101189.88;4938936;28;20098;-86
2021/01/15 09:15:26;;;;;;;12.15;5.30;;;;;;;3.32;63.56;101178.97;4950070;28;20050;-85
2021/01/15 09:17:54;;;;;;;13.52;5.78;;;;;;;3.57;63.80;101177.47;4961411;28;20410;-85
2021/01/15 09:20:22;;;;;;;15.23;6.82;;;;;;;3.87;63.35;101165.91;4949153;28;20681;-86
2021/01/15 09:22:48;;;;;;;16.42;7.72;;;;;;;4.26;65.21;101164.09;4966889;28;20121;-81
2021/01/15 09:25:16;;;;;;;20.95;11.23;;;;;;;4.99;66.18;101174.81;4948116;28;20162;-84
2021/01/15 09:27:43;;;;;;;14.02;8.32;;;;;;;6.05;66.92;101174.41;4956750;28;20053;-82
2021/01/15 09:30:15;;;;;;;22.17;11.70;;;;;;;7.43;66.69;101177.97;4999433;28;20905;-83
2021/01/15 09:32:46;;;;;;;23.33;13.90;;;;;;;9.09;66.97;101170.97;4979133;28;20045;-82
2021/01/15 09:35:16;;;;;;;105.35;31.42;;;;;;;10.30;66.21;101166.44;4987438;28;20116;-84
2021/01/15 09:37:43;;;;;;;71.72;23.80;;;;;;;11.19;55.14;101167.81;4997972;28;20050;-89
2021/01/15 09:40:10;;;;;;;43.20;16.02;;;;;;;12.81;65.41;101178.25;4990014;28;20046;-83
2021/01/15 09:42:37;;;;;;;17.35;7.90;;;;;;;14.06;61.13;101183.25;4999833;28;20046;-85
2021/01/15 09:45:06;;;;;;;10.18;4.53;;;;;;;14.61;52.00;101178.09;4973335;28;20493;-87
2021/01/15 09:47:34;;;;;;;13.18;4.05;;;;;;;15.49;52.12;101183.22;5002717;28;20057;-88
2021/01/15 09:50:02;;;;;;;7.38;3.53;;;;;;;16.45;48.59;101178.28;5005683;28;20045;-86
2021/01/15 09:52:36;;;;;;;8.30;2.75;;;;;;;17.31;45.01;101190.69;4981174;28;20390;-81
2021/01/15 09:55:04;;;;;;;7.10;2.47;;;;;;;17.81;41.23;101191.88;4989218;28;20481;-86
2021/01/15 09:57:31;;;;;;;9.82;2.85;;;;;;;18.16;41.18;101191.41;4977050;28;20058;-82
2021/01/15 09:59:59;;;;;;;5.70;2.60;;;;;;;18.41;37.91;101199.84;4997758;28;20108;-84
2021/01/15 10:02:26;;;;;;;9.02;3.10;;;;;;;18.86;33.47;101207.06;4997908;28;20074;-80
2021/01/15 10:04:53;;;;;;;4.35;2.28;;;;;;;19.13;31.58;101203.06;4959198;28;20050;-82
2021/01/15 10:07:20;;;;;;;6.60;2.78;;;;;;;19.80;29.49;101201.75;4972882;28;20054;-83
2021/01/15 10:09:48;;;;;;;4.63;2.58;;;;;;;20.40;26.32;101205.72;4975040;28;20050;-84
2021/01/15 10:12:16;;;;;;;4.40;2.08;;;;;;;20.96;25.18;101216.72;4970095;28;20049;-82
2021/01/15 10:14:43;;;;;;;4.22;1.95;;;;;;;21.47;24.34;101214.50;5001126;28;20224;-84
2021/01/15 10:17:17;;;;;;;2.83;1.77;;;;;;;21.79;22.90;101232.19;4986167;28;20378;-79
2021/01/15 10:19:53;;;;;;;;;;;;;;;22.11;22.17;101226.81;4979880;28;20046;-82
2021/01/15 10:22:22;;;;;;;8.02;2.67;;;;;;;22.10;22.51;101225.09;4960444;28;20003;-81
2021/01/15 10:24:51;;;;;;;3.88;2.15;;;;;;;21.81;22.30;101233.03;4968638;28;22320;-84
2021/01/15 10:27:19;;;;;;;5.50;2.38;;;;;;;20.99;22.95;101237.91;4962175;28;20129;-82
2021/01/15 10:29:46;;;;;;;9.27;2.55;;;;;;;20.40;23.13;101236.69;4998274;28;20100;-81
2021/01/15 10:32:13;;;;;;;5.70;1.70;;;;;;;20.28;23.66;101229.00;4988622;28;20158;-82
2021/01/15 10:34:40;;;;;;;7.07;2.05;;;;;;;20.35;23.21;101231.50;4980006;28;20118;-80
2021/01/15 10:37:08;;;;;;;7.70;2.10;;;;;;;20.30;23.36;101221.84;5007627;28;20129;-79
2021/01/15 10:39:36;;;;;;;7.47;2.42;;;;;;;19.89;24.05;101212.16;4991777;28;20056;-85
2021/01/15 10:42:04;;;;;;;5.80;2.28;;;;;;;19.58;23.91;101207.50;4997735;28;20058;-80
2021/01/15 10:44:36;;;;;;;24.13;4.60;;;;;;;18.32;26.44;101200.00;4984782;28;20071;-80
2021/01/15 10:47:03;;;;;;;15.32;8.00;;;;;;;17.85;27.33;101204.16;4994476;28;20046;-83
2021/01/15 10:49:30;;;;;;;17.83;8.82;;;;;;;17.25;28.33;101201.34;4978126;28;20455;-81
2021/01/15 10:51:57;;;;;;;15.77;7.88;;;;;;;17.66;28.08;101195.59;4990214;28;20460;-81
2021/01/15 10:54:24;;;;;;;9.38;5.65;;;;;;;17.80;27.88;101203.34;4981692;28;20049;-86
2021/01/15 10:56:53;;;;;;;7.00;3.90;;;;;;;17.61;27.83;101209.75;4990566;28;20477;-86
2021/01/15 10:59:21;;;;;;;8.80;3.78;;;;;;;17.26;28.22;101208.38;4990929;28;20499;-86
2021/01/15 11:01:50;;;;;;;9.75;3.35;;;;;;;17.15;28.76;101227.84;5001278;28;20077;-84
2021/01/15 11:04:19;;;;;;;8.40;3.10;;;;;;;17.25;28.15;101218.94;4985529;28;20355;-82
2021/01/15 11:06:52;;;;;;;5.97;3.40;;;;;;;17.62;27.72;101215.03;4991388;28;20114;-85
2021/01/15 11:09:20;;;;;;;6.93;2.40;;;;;;;17.99;27.33;101204.84;5000338;28;20034;-82
2021/01/15 11:12:05;;;;;;;8.20;3.25;;;;;;;18.49;27.06;101208.53;4980702;28;20097;-81
2021/01/15 11:14:32;;;;;;;9.20;3.92;;;;;;;18.87;26.22;101211.47;4965331;28;20214;-84
2021/01/15 11:17:00;;;;;;;11.30;5.47;;;;;;;18.70;26.46;101217.03;4974007;28;20096;-85
2021/01/15 11:19:27;;;;;;;7.50;5.28;;;;;;;19.30;26.73;101211.56;4989022;28;20058;-83
2021/01/15 11:21:54;;;;;;;11.15;4.90;;;;;;;19.87;25.25;101206.00;4978579;28;20072;-86
2021/01/15 11:24:21;;;;;;;8.18;4.90;;;;;;;20.24;24.23;101200.78;4969878;28;20495;-84
2021/01/15 11:26:48;;;;;;;7.32;3.78;;;;;;;20.48;24.53;101197.56;4999335;28;20089;-84
2021/01/15 11:29:15;;;;;;;7.82;2.88;;;;;;;20.99;24.24;101198.06;4972507;28;20568;-84
2021/01/15 11:31:43;;;;;;;5.68;2.70;;;;;;;21.14;23.59;101195.03;4977346;28;20057;-83
2021/01/15 11:34:11;;;;;;;5.88;3.03;;;;;;;21.07;23.61;101197.84;4967790;28;20050;-84
2021/01/15 11:36:38;;;;;;;10.00;3.88;;;;;;;21.09;24.21;101194.25;4995292;28;20062;-84
2021/01/15 11:39:10;;;;;;;6.60;4.13;;;;;;;21.10;23.77;101190.63;4998321;28;20084;-82